sensor_id;sensor_type;location;lat;lon;timestamp;temperature;humidity
8475;DHT22;4274;52.012;8.448;2023-03-19T00:02:11;9.50;99.90
8475;DHT22;4274;52.012;8.448;2023-03-19T00:04:37;9.40;99.90
8475;DHT22;4274;52.012;8.448;2023-03-19T00:07:02;9.40;99.90
8475;DHT22;4274;52.012;8.448;2023-03-19T00:09:28;9.40;99.90
8475;DHT22;4274;52.012;8.448;2023-03-19T00:11:54;9.30;99.90
8475;DHT22;4274;52.012;8.448;2023-03-19T00:14:20;9.40;99.90
8475;DHT22;4274;52.012;8.448;2023-03-19T00:16:45;9.40;99.90
8475;DHT22;4274;52.012;8.448;2023-03-19T00:19:11;9.50;99.90
8475;DHT22;4274;52.012;8.448;2023-03-19T00:21:36;9.50;99.90
8475;DHT22;4274;52.012;8.448;2023-03-19T00:24:02;9.60;99.90
8475;DHT22;4274;52.012;8.448;2023-03-19T00:26:29;9.60;99.90
8475;DHT22;4274;52.012;8.448;2023-03-19T00:28:56;9.60;99.90
8475;DHT22;4274;52.012;8.448;2023-03-19T00:31:22;9.60;99.90
8475;DHT22;4274;52.012;8.448;2023-03-19T00:33:48;9.60;99.90
8475;DHT22;4274;52.012;8.448;2023-03-19T00:36:14;9.60;99.90
8475;DHT22;4274;52.012;8.448;2023-03-19T00:38:41;9.60;99.90
8475;DHT22;4274;52.012;8.448;2023-03-19T00:41:07;9.50;99.90
8475;DHT22;4274;52.012;8.448;2023-03-19T00:43:33;9.40;99.90
8475;DHT22;4274;52.012;8.448;2023-03-19T00:45:59;9.40;99.90
8475;DHT22;4274;52.012;8.448;2023-03-19T00:48:25;9.40;99.90
8475;DHT22;4274;52.012;8.448;2023-03-19T00:50:50;9.30;99.90
8475;DHT22;4274;52.012;8.448;2023-03-19T00:53:16;9.30;99.90
8475;DHT22;4274;52.012;8.448;2023-03-19T00:55:42;9.30;99.90
8475;DHT22;4274;52.012;8.448;2023-03-19T00:58:08;9.40;99.90
8475;DHT22;4274;52.012;8.448;2023-03-19T01:00:35;9.30;99.90
8475;DHT22;4274;52.012;8.448;2023-03-19T01:03:01;9.20;99.90
8475;DHT22;4274;52.012;8.448;2023-03-19T01:05:27;9.20;99.90
8475;DHT22;4274;52.012;8.448;2023-03-19T01:07:52;9.10;99.90
8475;DHT22;4274;52.012;8.448;2023-03-19T01:10:22;9.10;99.90
8475;DHT22;4274;52.012;8.448;2023-03-19T01:12:49;9.00;99.90
8475;DHT22;4274;52.012;8.448;2023-03-19T01:15:15;9.00;99.90
8475;DHT22;4274;52.012;8.448;2023-03-19T01:17:41;8.90;99.90
8475;DHT22;4274;52.012;8.448;2023-03-19T01:20:08;8.90;99.90
8475;DHT22;4274;52.012;8.448;2023-03-19T01:22:40;8.80;99.90
8475;DHT22;4274;52.012;8.448;2023-03-19T01:25:08;8.70;99.90
8475;DHT22;4274;52.012;8.448;2023-03-19T01:27:34;8.70;99.90
8475;DHT22;4274;52.012;8.448;2023-03-19T01:30:00;8.70;99.90
8475;DHT22;4274;52.012;8.448;2023-03-19T01:32:26;8.80;99.90
8475;DHT22;4274;52.012;8.448;2023-03-19T01:34:52;8.80;99.90
8475;DHT22;4274;52.012;8.448;2023-03-19T01:37:19;9.00;99.90
8475;DHT22;4274;52.012;8.448;2023-03-19T01:39:45;9.00;99.90
8475;DHT22;4274;52.012;8.448;2023-03-19T01:42:11;9.10;99.90
8475;DHT22;4274;52.012;8.448;2023-03-19T01:44:39;9.10;99.90
8475;DHT22;4274;52.012;8.448;2023-03-19T01:47:10;9.20;99.90
8475;DHT22;4274;52.012;8.448;2023-03-19T01:49:36;9.30;99.90
8475;DHT22;4274;52.012;8.448;2023-03-19T01:52:05;9.30;99.90
8475;DHT22;4274;52.012;8.448;2023-03-19T01:54:32;9.30;99.90
8475;DHT22;4274;52.012;8.448;2023-03-19T01:57:03;9.20;99.90
8475;DHT22;4274;52.012;8.448;2023-03-19T01:59:33;9.10;99.90
8475;DHT22;4274;52.012;8.448;2023-03-19T02:04:52;8.90;99.90
8475;DHT22;4274;52.012;8.448;2023-03-19T02:07:20;8.80;99.90
8475;DHT22;4274;52.012;8.448;2023-03-19T02:09:46;8.80;99.90
8475;DHT22;4274;52.012;8.448;2023-03-19T02:12:12;8.80;99.90
8475;DHT22;4274;52.012;8.448;2023-03-19T02:14:38;8.70;99.90
8475;DHT22;4274;52.012;8.448;2023-03-19T02:17:04;8.70;99.90
8475;DHT22;4274;52.012;8.448;2023-03-19T02:22:03;8.70;99.90
8475;DHT22;4274;52.012;8.448;2023-03-19T02:24:35;8.60;99.90
8475;DHT22;4274;52.012;8.448;2023-03-19T02:27:02;8.60;99.90
8475;DHT22;4274;52.012;8.448;2023-03-19T02:29:28;8.60;99.90
8475;DHT22;4274;52.012;8.448;2023-03-19T02:31:54;8.60;99.90
8475;DHT22;4274;52.012;8.448;2023-03-19T02:36:51;8.50;99.90
8475;DHT22;4274;52.012;8.448;2023-03-19T02:39:45;8.40;99.90
8475;DHT22;4274;52.012;8.448;2023-03-19T02:42:15;8.40;99.90
8475;DHT22;4274;52.012;8.448;2023-03-19T02:44:41;8.30;99.90
8475;DHT22;4274;52.012;8.448;2023-03-19T02:47:07;8.20;99.90
8475;DHT22;4274;52.012;8.448;2023-03-19T02:49:32;8.10;99.90
8475;DHT22;4274;52.012;8.448;2023-03-19T02:51:58;8.10;99.90
8475;DHT22;4274;52.012;8.448;2023-03-19T02:54:24;8.10;99.90
8475;DHT22;4274;52.012;8.448;2023-03-19T02:56:49;8.20;99.90
8475;DHT22;4274;52.012;8.448;2023-03-19T02:59:16;8.20;99.90
8475;DHT22;4274;52.012;8.448;2023-03-19T03:01:42;8.30;99.90
8475;DHT22;4274;52.012;8.448;2023-03-19T03:04:08;8.40;99.90
8475;DHT22;4274;52.012;8.448;2023-03-19T03:06:33;8.40;99.90
8475;DHT22;4274;52.012;8.448;2023-03-19T03:08:59;8.40;99.90
8475;DHT22;4274;52.012;8.448;2023-03-19T03:11:25;8.40;99.90
8475;DHT22;4274;52.012;8.448;2023-03-19T03:13:51;8.50;99.90
8475;DHT22;4274;52.012;8.448;2023-03-19T03:16:17;8.60;99.90
8475;DHT22;4274;52.012;8.448;2023-03-19T03:18:42;8.70;99.90
8475;DHT22;4274;52.012;8.448;2023-03-19T03:21:08;8.80;99.90
8475;DHT22;4274;52.012;8.448;2023-03-19T03:23:34;8.80;99.90
8475;DHT22;4274;52.012;8.448;2023-03-19T03:26:01;8.80;99.90
8475;DHT22;4274;52.012;8.448;2023-03-19T03:28:26;9.00;99.90
8475;DHT22;4274;52.012;8.448;2023-03-19T03:30:58;9.00;99.90
8475;DHT22;4274;52.012;8.448;2023-03-19T03:33:23;9.10;99.90
8475;DHT22;4274;52.012;8.448;2023-03-19T03:35:50;9.20;99.90
8475;DHT22;4274;52.012;8.448;2023-03-19T03:38:16;9.20;99.90
8475;DHT22;4274;52.012;8.448;2023-03-19T03:40:42;9.30;99.90
8475;DHT22;4274;52.012;8.448;2023-03-19T03:43:08;9.30;99.90
8475;DHT22;4274;52.012;8.448;2023-03-19T03:45:35;9.40;99.90
8475;DHT22;4274;52.012;8.448;2023-03-19T03:48:01;9.30;99.90
8475;DHT22;4274;52.012;8.448;2023-03-19T03:50:26;9.30;99.90
8475;DHT22;4274;52.012;8.448;2023-03-19T03:52:52;9.30;99.90
8475;DHT22;4274;52.012;8.448;2023-03-19T03:55:17;9.20;99.90
8475;DHT22;4274;52.012;8.448;2023-03-19T03:57:43;9.10;99.90
8475;DHT22;4274;52.012;8.448;2023-03-19T04:00:09;9.00;99.90
8475;DHT22;4274;52.012;8.448;2023-03-19T04:02:35;9.00;99.90
8475;DHT22;4274;52.012;8.448;2023-03-19T04:05:01;8.90;99.90
8475;DHT22;4274;52.012;8.448;2023-03-19T04:07:26;8.90;99.90
8475;DHT22;4274;52.012;8.448;2023-03-19T04:09:52;8.90;99.90
8475;DHT22;4274;52.012;8.448;2023-03-19T04:12:18;8.70;99.90
8475;DHT22;4274;52.012;8.448;2023-03-19T04:14:44;8.60;99.90
8475;DHT22;4274;52.012;8.448;2023-03-19T04:17:09;8.40;99.90
8475;DHT22;4274;52.012;8.448;2023-03-19T04:19:35;8.40;99.90
8475;DHT22;4274;52.012;8.448;2023-03-19T04:22:01;8.30;99.90
8475;DHT22;4274;52.012;8.448;2023-03-19T04:24:28;8.20;99.90
8475;DHT22;4274;52.012;8.448;2023-03-19T04:26:53;8.20;99.90
8475;DHT22;4274;52.012;8.448;2023-03-19T04:29:19;8.20;99.90
8475;DHT22;4274;52.012;8.448;2023-03-19T04:31:44;8.20;99.90
8475;DHT22;4274;52.012;8.448;2023-03-19T04:34:10;8.20;99.90
8475;DHT22;4274;52.012;8.448;2023-03-19T04:36:37;8.20;99.90
8475;DHT22;4274;52.012;8.448;2023-03-19T04:39:03;8.10;99.90
8475;DHT22;4274;52.012;8.448;2023-03-19T04:41:28;8.00;99.90
8475;DHT22;4274;52.012;8.448;2023-03-19T04:43:54;7.90;99.90
8475;DHT22;4274;52.012;8.448;2023-03-19T04:46:20;7.90;99.90
8475;DHT22;4274;52.012;8.448;2023-03-19T04:48:45;7.90;99.90
8475;DHT22;4274;52.012;8.448;2023-03-19T04:51:11;7.90;99.90
8475;DHT22;4274;52.012;8.448;2023-03-19T04:53:37;7.90;99.90
8475;DHT22;4274;52.012;8.448;2023-03-19T04:56:03;7.90;99.90
8475;DHT22;4274;52.012;8.448;2023-03-19T04:58:29;7.90;99.90
8475;DHT22;4274;52.012;8.448;2023-03-19T05:00:54;7.80;99.90
8475;DHT22;4274;52.012;8.448;2023-03-19T05:03:20;7.60;99.90
8475;DHT22;4274;52.012;8.448;2023-03-19T05:05:46;7.50;99.90
8475;DHT22;4274;52.012;8.448;2023-03-19T05:08:12;7.40;99.90
8475;DHT22;4274;52.012;8.448;2023-03-19T05:10:38;7.40;99.90
8475;DHT22;4274;52.012;8.448;2023-03-19T05:13:04;7.30;99.90
8475;DHT22;4274;52.012;8.448;2023-03-19T05:15:30;7.30;99.90
8475;DHT22;4274;52.012;8.448;2023-03-19T05:17:55;7.20;99.90
8475;DHT22;4274;52.012;8.448;2023-03-19T05:20:21;7.20;99.90
8475;DHT22;4274;52.012;8.448;2023-03-19T05:22:48;7.20;99.90
8475;DHT22;4274;52.012;8.448;2023-03-19T05:25:13;7.10;99.90
8475;DHT22;4274;52.012;8.448;2023-03-19T05:27:39;7.10;99.90
8475;DHT22;4274;52.012;8.448;2023-03-19T05:30:06;7.10;99.90
8475;DHT22;4274;52.012;8.448;2023-03-19T05:32:32;7.20;99.90
8475;DHT22;4274;52.012;8.448;2023-03-19T05:34:58;7.30;99.90
8475;DHT22;4274;52.012;8.448;2023-03-19T05:37:24;7.50;99.90
8475;DHT22;4274;52.012;8.448;2023-03-19T05:39:53;7.50;99.90
8475;DHT22;4274;52.012;8.448;2023-03-19T05:42:18;7.40;99.90
8475;DHT22;4274;52.012;8.448;2023-03-19T05:44:44;7.40;99.90
8475;DHT22;4274;52.012;8.448;2023-03-19T05:47:10;7.30;99.90
8475;DHT22;4274;52.012;8.448;2023-03-19T05:49:36;7.40;99.90
8475;DHT22;4274;52.012;8.448;2023-03-19T05:52:02;7.50;99.90
8475;DHT22;4274;52.012;8.448;2023-03-19T05:54:28;7.60;99.90
8475;DHT22;4274;52.012;8.448;2023-03-19T05:56:54;7.60;99.90
8475;DHT22;4274;52.012;8.448;2023-03-19T05:59:19;7.50;99.90
8475;DHT22;4274;52.012;8.448;2023-03-19T06:01:45;7.50;99.90
8475;DHT22;4274;52.012;8.448;2023-03-19T06:04:11;7.40;99.90
8475;DHT22;4274;52.012;8.448;2023-03-19T06:06:37;7.30;99.90
8475;DHT22;4274;52.012;8.448;2023-03-19T06:09:02;7.30;99.90
8475;DHT22;4274;52.012;8.448;2023-03-19T06:11:28;7.40;99.90
8475;DHT22;4274;52.012;8.448;2023-03-19T06:13:53;7.50;99.90
8475;DHT22;4274;52.012;8.448;2023-03-19T06:16:19;7.60;99.90
8475;DHT22;4274;52.012;8.448;2023-03-19T06:18:45;7.90;99.90
8475;DHT22;4274;52.012;8.448;2023-03-19T06:21:11;8.10;99.90
8475;DHT22;4274;52.012;8.448;2023-03-19T06:23:37;8.40;99.90
8475;DHT22;4274;52.012;8.448;2023-03-19T06:26:03;8.80;99.90
8475;DHT22;4274;52.012;8.448;2023-03-19T06:28:31;9.30;99.90
8475;DHT22;4274;52.012;8.448;2023-03-19T06:30:57;9.70;99.90
8475;DHT22;4274;52.012;8.448;2023-03-19T06:33:23;10.10;99.90
8475;DHT22;4274;52.012;8.448;2023-03-19T06:35:52;10.50;99.90
8475;DHT22;4274;52.012;8.448;2023-03-19T06:38:18;11.00;99.90
8475;DHT22;4274;52.012;8.448;2023-03-19T06:40:43;11.40;99.90
8475;DHT22;4274;52.012;8.448;2023-03-19T06:43:09;11.90;99.90
8475;DHT22;4274;52.012;8.448;2023-03-19T06:45:34;12.50;99.90
8475;DHT22;4274;52.012;8.448;2023-03-19T06:48:00;13.10;99.90
8475;DHT22;4274;52.012;8.448;2023-03-19T06:50:26;13.70;99.90
8475;DHT22;4274;52.012;8.448;2023-03-19T06:52:51;14.30;99.90
8475;DHT22;4274;52.012;8.448;2023-03-19T06:55:17;14.50;99.90
8475;DHT22;4274;52.012;8.448;2023-03-19T06:57:48;14.50;99.90
8475;DHT22;4274;52.012;8.448;2023-03-19T07:00:15;14.40;99.90
8475;DHT22;4274;52.012;8.448;2023-03-19T07:02:40;14.30;99.90
8475;DHT22;4274;52.012;8.448;2023-03-19T07:05:06;14.00;99.90
8475;DHT22;4274;52.012;8.448;2023-03-19T07:07:32;13.60;99.90
8475;DHT22;4274;52.012;8.448;2023-03-19T07:09:57;13.30;99.90
8475;DHT22;4274;52.012;8.448;2023-03-19T07:12:23;13.10;99.90
8475;DHT22;4274;52.012;8.448;2023-03-19T07:14:55;12.90;99.90
8475;DHT22;4274;52.012;8.448;2023-03-19T07:17:21;12.70;99.90
8475;DHT22;4274;52.012;8.448;2023-03-19T07:19:47;12.60;99.90
8475;DHT22;4274;52.012;8.448;2023-03-19T07:22:13;12.50;99.90
8475;DHT22;4274;52.012;8.448;2023-03-19T07:24:39;12.40;99.90
8475;DHT22;4274;52.012;8.448;2023-03-19T07:27:04;12.50;99.90
8475;DHT22;4274;52.012;8.448;2023-03-19T07:29:30;12.60;99.90
8475;DHT22;4274;52.012;8.448;2023-03-19T07:31:56;12.70;99.90
8475;DHT22;4274;52.012;8.448;2023-03-19T07:34:22;12.90;99.90
8475;DHT22;4274;52.012;8.448;2023-03-19T07:36:47;13.10;99.90
8475;DHT22;4274;52.012;8.448;2023-03-19T07:39:13;13.20;99.90
8475;DHT22;4274;52.012;8.448;2023-03-19T07:41:39;13.30;99.90
8475;DHT22;4274;52.012;8.448;2023-03-19T07:44:05;13.30;99.90
8475;DHT22;4274;52.012;8.448;2023-03-19T07:46:31;13.40;99.90
8475;DHT22;4274;52.012;8.448;2023-03-19T07:48:56;13.40;99.90
8475;DHT22;4274;52.012;8.448;2023-03-19T07:51:22;13.70;99.90
8475;DHT22;4274;52.012;8.448;2023-03-19T07:53:47;14.10;99.90
8475;DHT22;4274;52.012;8.448;2023-03-19T07:56:13;14.20;99.90
8475;DHT22;4274;52.012;8.448;2023-03-19T07:58:38;14.30;99.90
8475;DHT22;4274;52.012;8.448;2023-03-19T08:01:04;14.80;99.90
8475;DHT22;4274;52.012;8.448;2023-03-19T08:03:31;15.40;99.90
8475;DHT22;4274;52.012;8.448;2023-03-19T08:05:57;16.20;99.90
8475;DHT22;4274;52.012;8.448;2023-03-19T08:08:23;16.90;99.90
8475;DHT22;4274;52.012;8.448;2023-03-19T08:10:49;17.60;99.90
8475;DHT22;4274;52.012;8.448;2023-03-19T08:13:15;18.00;99.90
8475;DHT22;4274;52.012;8.448;2023-03-19T08:15:41;18.40;99.90
8475;DHT22;4274;52.012;8.448;2023-03-19T08:18:06;18.50;99.90
8475;DHT22;4274;52.012;8.448;2023-03-19T08:20:32;18.50;99.90
8475;DHT22;4274;52.012;8.448;2023-03-19T08:22:57;18.60;99.90
8475;DHT22;4274;52.012;8.448;2023-03-19T08:25:24;18.60;99.90
8475;DHT22;4274;52.012;8.448;2023-03-19T08:27:50;18.30;99.90
8475;DHT22;4274;52.012;8.448;2023-03-19T08:30:16;17.70;99.90
8475;DHT22;4274;52.012;8.448;2023-03-19T08:32:42;17.10;99.90
8475;DHT22;4274;52.012;8.448;2023-03-19T08:35:09;16.40;99.90
8475;DHT22;4274;52.012;8.448;2023-03-19T08:37:35;16.00;99.90
8475;DHT22;4274;52.012;8.448;2023-03-19T08:40:02;15.70;99.90
8475;DHT22;4274;52.012;8.448;2023-03-19T08:42:29;15.50;99.90
8475;DHT22;4274;52.012;8.448;2023-03-19T08:44:54;15.60;99.90
8475;DHT22;4274;52.012;8.448;2023-03-19T08:47:20;15.60;99.90
8475;DHT22;4274;52.012;8.448;2023-03-19T08:49:49;15.80;99.90
8475;DHT22;4274;52.012;8.448;2023-03-19T08:52:16;16.30;99.90
8475;DHT22;4274;52.012;8.448;2023-03-19T08:54:41;17.00;99.90
8475;DHT22;4274;52.012;8.448;2023-03-19T08:57:07;17.60;99.90
8475;DHT22;4274;52.012;8.448;2023-03-19T08:59:33;18.20;99.90
8475;DHT22;4274;52.012;8.448;2023-03-19T09:01:58;18.40;99.90
8475;DHT22;4274;52.012;8.448;2023-03-19T09:04:24;18.20;99.90
8475;DHT22;4274;52.012;8.448;2023-03-19T09:06:49;18.10;99.90
8475;DHT22;4274;52.012;8.448;2023-03-19T09:09:20;17.80;99.90
8475;DHT22;4274;52.012;8.448;2023-03-19T09:11:46;17.50;99.90
8475;DHT22;4274;52.012;8.448;2023-03-19T09:14:12;17.30;99.90
8475;DHT22;4274;52.012;8.448;2023-03-19T09:16:39;17.30;99.90
8475;DHT22;4274;52.012;8.448;2023-03-19T09:19:04;17.30;99.90
8475;DHT22;4274;52.012;8.448;2023-03-19T09:21:30;17.20;99.90
8475;DHT22;4274;52.012;8.448;2023-03-19T09:23:56;16.90;99.90
8475;DHT22;4274;52.012;8.448;2023-03-19T09:26:21;16.40;99.90
8475;DHT22;4274;52.012;8.448;2023-03-19T09:28:47;15.90;99.90
8475;DHT22;4274;52.012;8.448;2023-03-19T09:31:12;15.40;99.90
8475;DHT22;4274;52.012;8.448;2023-03-19T09:33:38;15.10;99.90
8475;DHT22;4274;52.012;8.448;2023-03-19T09:36:04;14.80;99.90
8475;DHT22;4274;52.012;8.448;2023-03-19T09:38:30;14.60;99.90
8475;DHT22;4274;52.012;8.448;2023-03-19T09:49:16;14.00;99.90
8475;DHT22;4274;52.012;8.448;2023-03-19T09:51:57;13.90;99.90
8475;DHT22;4274;52.012;8.448;2023-03-19T09:54:55;13.70;99.90
8475;DHT22;4274;52.012;8.448;2023-03-19T09:57:22;13.60;99.90
8475;DHT22;4274;52.012;8.448;2023-03-19T09:59:48;13.60;99.90
8475;DHT22;4274;52.012;8.448;2023-03-19T10:02:28;13.50;99.90
8475;DHT22;4274;52.012;8.448;2023-03-19T10:05:31;13.50;99.90
8475;DHT22;4274;52.012;8.448;2023-03-19T10:08:25;13.50;99.90
8475;DHT22;4274;52.012;8.448;2023-03-19T10:11:09;13.90;99.90
8475;DHT22;4274;52.012;8.448;2023-03-19T10:13:46;15.40;99.90
8475;DHT22;4274;52.012;8.448;2023-03-19T10:16:20;16.60;99.90
8475;DHT22;4274;52.012;8.448;2023-03-19T10:18:49;17.50;99.90
8475;DHT22;4274;52.012;8.448;2023-03-19T10:21:24;18.50;99.90
8475;DHT22;4274;52.012;8.448;2023-03-19T10:24:10;19.40;99.90
8475;DHT22;4274;52.012;8.448;2023-03-19T10:26:36;19.30;99.90
8475;DHT22;4274;52.012;8.448;2023-03-19T10:29:15;18.80;99.90
8475;DHT22;4274;52.012;8.448;2023-03-19T10:34:40;17.70;99.90
8475;DHT22;4274;52.012;8.448;2023-03-19T10:39:39;16.80;99.90
8475;DHT22;4274;52.012;8.448;2023-03-19T10:44:58;16.10;99.90
8475;DHT22;4274;52.012;8.448;2023-03-19T10:47:25;15.90;99.90
8475;DHT22;4274;52.012;8.448;2023-03-19T10:49:51;15.80;99.90
8475;DHT22;4274;52.012;8.448;2023-03-19T10:52:29;15.70;99.90
8475;DHT22;4274;52.012;8.448;2023-03-19T10:55:02;15.60;99.90
8475;DHT22;4274;52.012;8.448;2023-03-19T10:57:29;16.30;99.90
8475;DHT22;4274;52.012;8.448;2023-03-19T11:00:16;16.90;99.90
8475;DHT22;4274;52.012;8.448;2023-03-19T11:02:48;17.70;99.90
8475;DHT22;4274;52.012;8.448;2023-03-19T11:05:24;17.80;99.90
8475;DHT22;4274;52.012;8.448;2023-03-19T11:07:55;17.40;99.90
8475;DHT22;4274;52.012;8.448;2023-03-19T11:10:24;17.00;99.90
8475;DHT22;4274;52.012;8.448;2023-03-19T11:13:11;16.70;99.90
8475;DHT22;4274;52.012;8.448;2023-03-19T11:15:41;16.40;99.90
8475;DHT22;4274;52.012;8.448;2023-03-19T11:18:18;16.10;99.90
8475;DHT22;4274;52.012;8.448;2023-03-19T11:20:58;15.80;99.90
8475;DHT22;4274;52.012;8.448;2023-03-19T11:23:28;15.50;99.90
8475;DHT22;4274;52.012;8.448;2023-03-19T11:25:58;15.30;99.90
8475;DHT22;4274;52.012;8.448;2023-03-19T11:28:26;15.20;99.90
8475;DHT22;4274;52.012;8.448;2023-03-19T11:42:26;17.10;99.90
8475;DHT22;4274;52.012;8.448;2023-03-19T11:47:52;16.60;99.90
8475;DHT22;4274;52.012;8.448;2023-03-19T11:53:50;16.00;99.90
8475;DHT22;4274;52.012;8.448;2023-03-19T11:59:14;15.50;99.90
8475;DHT22;4274;52.012;8.448;2023-03-19T12:07:43;15.30;99.90
8475;DHT22;4274;52.012;8.448;2023-03-19T12:16:14;15.10;99.90
8475;DHT22;4274;52.012;8.448;2023-03-19T12:35:16;14.90;99.90
8475;DHT22;4274;52.012;8.448;2023-03-19T12:37:57;15.00;99.90
8475;DHT22;4274;52.012;8.448;2023-03-19T12:40:33;15.00;99.90
8475;DHT22;4274;52.012;8.448;2023-03-19T12:46:11;15.20;99.90
8475;DHT22;4274;52.012;8.448;2023-03-19T12:48:47;15.80;99.90
8475;DHT22;4274;52.012;8.448;2023-03-19T12:51:17;16.50;99.90
8475;DHT22;4274;52.012;8.448;2023-03-19T12:53:48;16.80;99.90
8475;DHT22;4274;52.012;8.448;2023-03-19T12:59:04;16.50;99.90
8475;DHT22;4274;52.012;8.448;2023-03-19T13:01:36;16.50;99.90
8475;DHT22;4274;52.012;8.448;2023-03-19T13:04:12;16.50;99.90
8475;DHT22;4274;52.012;8.448;2023-03-19T13:06:56;16.50;99.90
8475;DHT22;4274;52.012;8.448;2023-03-19T13:09:57;16.60;99.90
8475;DHT22;4274;52.012;8.448;2023-03-19T13:12:24;16.60;99.90
8475;DHT22;4274;52.012;8.448;2023-03-19T13:18:15;16.70;99.90
8475;DHT22;4274;52.012;8.448;2023-03-19T13:23:15;16.90;99.90
8475;DHT22;4274;52.012;8.448;2023-03-19T13:25:46;16.70;99.90
8475;DHT22;4274;52.012;8.448;2023-03-19T13:28:27;16.70;99.90
8475;DHT22;4274;52.012;8.448;2023-03-19T13:31:07;16.90;99.90
8475;DHT22;4274;52.012;8.448;2023-03-19T13:36:37;18.00;99.90
8475;DHT22;4274;52.012;8.448;2023-03-19T13:39:14;18.20;99.90
8475;DHT22;4274;52.012;8.448;2023-03-19T13:47:02;18.20;99.90
8475;DHT22;4274;52.012;8.448;2023-03-19T13:50:09;18.60;99.90
8475;DHT22;4274;52.012;8.448;2023-03-19T14:00:52;19.80;99.90
8475;DHT22;4274;52.012;8.448;2023-03-19T14:03:25;20.60;99.90
8475;DHT22;4274;52.012;8.448;2023-03-19T14:05:53;21.30;99.90
8475;DHT22;4274;52.012;8.448;2023-03-19T14:08:21;21.60;99.90
8475;DHT22;4274;52.012;8.448;2023-03-19T14:11:01;21.70;99.90
8475;DHT22;4274;52.012;8.448;2023-03-19T14:13:33;21.90;99.90
8475;DHT22;4274;52.012;8.448;2023-03-19T14:16:06;21.60;99.90
8475;DHT22;4274;52.012;8.448;2023-03-19T14:18:34;21.00;99.90
8475;DHT22;4274;52.012;8.448;2023-03-19T14:21:08;20.60;99.90
8475;DHT22;4274;52.012;8.448;2023-03-19T14:23:38;20.20;99.90
8475;DHT22;4274;52.012;8.448;2023-03-19T14:26:22;19.50;99.90
8475;DHT22;4274;52.012;8.448;2023-03-19T14:29:03;18.90;99.90
8475;DHT22;4274;52.012;8.448;2023-03-19T14:31:51;18.40;99.90
8475;DHT22;4274;52.012;8.448;2023-03-19T14:34:33;18.00;99.90
8475;DHT22;4274;52.012;8.448;2023-03-19T14:38:03;17.70;99.90
8475;DHT22;4274;52.012;8.448;2023-03-19T14:45:38;16.70;99.90
8475;DHT22;4274;52.012;8.448;2023-03-19T14:53:52;16.70;99.90
8475;DHT22;4274;52.012;8.448;2023-03-19T14:56:31;16.70;99.90
8475;DHT22;4274;52.012;8.448;2023-03-19T14:58:58;16.70;99.90
8475;DHT22;4274;52.012;8.448;2023-03-19T15:01:33;16.70;99.90
8475;DHT22;4274;52.012;8.448;2023-03-19T15:04:08;16.60;99.90
8475;DHT22;4274;52.012;8.448;2023-03-19T15:06:39;16.50;99.90
8475;DHT22;4274;52.012;8.448;2023-03-19T15:09:18;16.50;99.90
8475;DHT22;4274;52.012;8.448;2023-03-19T15:17:22;16.00;99.90
8475;DHT22;4274;52.012;8.448;2023-03-19T15:19:49;15.80;99.90
8475;DHT22;4274;52.012;8.448;2023-03-19T15:22:20;15.70;99.90
8475;DHT22;4274;52.012;8.448;2023-03-19T15:24:47;15.50;99.90
8475;DHT22;4274;52.012;8.448;2023-03-19T15:29:45;15.20;99.90
8475;DHT22;4274;52.012;8.448;2023-03-19T15:32:11;15.10;99.90
8475;DHT22;4274;52.012;8.448;2023-03-19T15:34:36;15.00;99.90
8475;DHT22;4274;52.012;8.448;2023-03-19T15:37:06;14.70;99.90
8475;DHT22;4274;52.012;8.448;2023-03-19T15:39:42;14.50;99.90
8475;DHT22;4274;52.012;8.448;2023-03-19T15:42:09;14.30;99.90
8475;DHT22;4274;52.012;8.448;2023-03-19T15:44:45;14.10;99.90
8475;DHT22;4274;52.012;8.448;2023-03-19T15:47:18;13.80;99.90
8475;DHT22;4274;52.012;8.448;2023-03-19T15:49:53;13.70;99.90
8475;DHT22;4274;52.012;8.448;2023-03-19T15:52:21;13.50;99.90
8475;DHT22;4274;52.012;8.448;2023-03-19T15:54:48;13.40;99.90
8475;DHT22;4274;52.012;8.448;2023-03-19T15:57:15;13.30;99.90
8475;DHT22;4274;52.012;8.448;2023-03-19T15:59:42;13.20;99.90
8475;DHT22;4274;52.012;8.448;2023-03-19T16:02:41;13.20;99.90
8475;DHT22;4274;52.012;8.448;2023-03-19T16:05:28;13.10;99.90
8475;DHT22;4274;52.012;8.448;2023-03-19T16:08:04;13.00;99.90
8475;DHT22;4274;52.012;8.448;2023-03-19T16:10:43;13.00;99.90
8475;DHT22;4274;52.012;8.448;2023-03-19T16:13:20;12.90;99.90
8475;DHT22;4274;52.012;8.448;2023-03-19T16:15:52;12.90;99.90
8475;DHT22;4274;52.012;8.448;2023-03-19T16:20:58;12.80;99.90
8475;DHT22;4274;52.012;8.448;2023-03-19T16:23:33;12.80;99.90
8475;DHT22;4274;52.012;8.448;2023-03-19T16:26:19;12.90;99.90
8475;DHT22;4274;52.012;8.448;2023-03-19T16:28:57;12.80;99.90
8475;DHT22;4274;52.012;8.448;2023-03-19T16:31:25;12.80;99.90
8475;DHT22;4274;52.012;8.448;2023-03-19T16:33:54;12.80;99.90
8475;DHT22;4274;52.012;8.448;2023-03-19T16:36:21;12.80;99.90
8475;DHT22;4274;52.012;8.448;2023-03-19T16:39:40;12.70;99.90
8475;DHT22;4274;52.012;8.448;2023-03-19T16:41:41;12.70;99.90
8475;DHT22;4274;52.012;8.448;2023-03-19T16:44:14;12.70;99.90
8475;DHT22;4274;52.012;8.448;2023-03-19T16:46:40;12.70;99.90
8475;DHT22;4274;52.012;8.448;2023-03-19T16:49:06;12.70;99.90
8475;DHT22;4274;52.012;8.448;2023-03-19T16:51:32;12.60;99.90
8475;DHT22;4274;52.012;8.448;2023-03-19T16:53:57;12.70;99.90
8475;DHT22;4274;52.012;8.448;2023-03-19T16:56:23;12.60;99.90
8475;DHT22;4274;52.012;8.448;2023-03-19T16:58:49;12.60;99.90
8475;DHT22;4274;52.012;8.448;2023-03-19T17:01:23;12.60;99.90
8475;DHT22;4274;52.012;8.448;2023-03-19T17:03:49;12.60;99.90
8475;DHT22;4274;52.012;8.448;2023-03-19T17:06:15;12.60;99.90
8475;DHT22;4274;52.012;8.448;2023-03-19T17:08:41;12.50;99.90
8475;DHT22;4274;52.012;8.448;2023-03-19T17:11:39;12.50;99.90
8475;DHT22;4274;52.012;8.448;2023-03-19T17:14:04;12.40;99.90
8475;DHT22;4274;52.012;8.448;2023-03-19T17:16:31;12.40;99.90
8475;DHT22;4274;52.012;8.448;2023-03-19T17:18:57;12.40;99.90
8475;DHT22;4274;52.012;8.448;2023-03-19T17:21:29;12.30;99.90
8475;DHT22;4274;52.012;8.448;2023-03-19T17:23:55;12.20;99.90
8475;DHT22;4274;52.012;8.448;2023-03-19T17:26:22;12.20;99.90
8475;DHT22;4274;52.012;8.448;2023-03-19T17:28:48;12.10;99.90
8475;DHT22;4274;52.012;8.448;2023-03-19T17:31:22;12.10;99.90
8475;DHT22;4274;52.012;8.448;2023-03-19T17:33:48;12.10;99.90
8475;DHT22;4274;52.012;8.448;2023-03-19T17:36:14;12.00;99.90
8475;DHT22;4274;52.012;8.448;2023-03-19T17:38:40;12.00;99.90
8475;DHT22;4274;52.012;8.448;2023-03-19T17:41:16;12.00;99.90
8475;DHT22;4274;52.012;8.448;2023-03-19T17:43:44;11.90;99.90
8475;DHT22;4274;52.012;8.448;2023-03-19T17:46:20;11.90;99.90
8475;DHT22;4274;52.012;8.448;2023-03-19T17:48:47;11.90;99.90
8475;DHT22;4274;52.012;8.448;2023-03-19T17:51:13;11.80;99.90
8475;DHT22;4274;52.012;8.448;2023-03-19T17:53:46;11.70;99.90
8475;DHT22;4274;52.012;8.448;2023-03-19T17:56:14;11.70;99.90
8475;DHT22;4274;52.012;8.448;2023-03-19T17:58:41;11.70;99.90
8475;DHT22;4274;52.012;8.448;2023-03-19T18:01:12;11.60;99.90
8475;DHT22;4274;52.012;8.448;2023-03-19T18:03:38;11.60;99.90
8475;DHT22;4274;52.012;8.448;2023-03-19T18:06:04;11.50;99.90
8475;DHT22;4274;52.012;8.448;2023-03-19T18:08:31;11.60;99.90
8475;DHT22;4274;52.012;8.448;2023-03-19T18:10:58;11.50;99.90
8475;DHT22;4274;52.012;8.448;2023-03-19T18:13:23;11.50;99.90
8475;DHT22;4274;52.012;8.448;2023-03-19T18:15:49;11.50;99.90
8475;DHT22;4274;52.012;8.448;2023-03-19T18:18:17;11.50;99.90
8475;DHT22;4274;52.012;8.448;2023-03-19T18:20:45;11.40;99.90
8475;DHT22;4274;52.012;8.448;2023-03-19T18:23:13;11.40;99.90